Архив погоды в Кашире

Метеограмма Кашира
Пятница, 24 Мая
Время местн. Темп Ветер Видим Явления Облачность нижн/средн/верх Атм. давл. Влжн Точка росы ВНГО R Сост. почвы Tg s
Напр Скр Прв ур.ст ур.м изм
09:00 +11.3° В 3 - 10 км - облачно 740 760 +1.3 81% +8.1° 600 м 0 Влажная (без луж) - -
06:00 +11.7° В 2 - 10 км - преимущественно облачно 739 758 +1.2 81% +8.6° 1 км - - - -
03:00 +12.1° С 1 - 10 км - облачно с прояснениями 738 757 +1.2 88% +10.1° 1 км - - - -
00:00 +14.4° С 2 - 10 км - ясно 736 756 +0.8 88% +12.4° более 2.5 км - - - -
Четверг, 23 Мая
Время местн. Темп Ветер Видим Явления Облачность нижн/средн/верх Атм. давл. Влжн Точка росы ВНГО R Сост. почвы Tg s
Напр Скр Прв ур.ст ур.м изм
21:00 +16.4° З,С-З 1 - 10 км облака рассеиваются {гроза, ливневые осадки} переменная облачность 736 755 +0.9 86% +14.1° - 0.3 - - -
18:00 +17.7° С 1 - 10 км гроза {ливневые осадки} облачно 735 754 +0.9 75% +13.3° 600 м - - - -
15:00 +24.1° З 2 - 20 км - облачно с прояснениями 734 752 -1.1 42% +10.4° 600 м - - - -
12:00 +23.2° З 3 - 20 км - преимущественно облачно 735 754 -0.5 44% +10.3° 1 км - - - -
09:00 +20° З 2 - 20 км - переменная облачность 735 754 -0.5 64% +13.1° - 0 Сухая (без трещин) - -
06:00 +15.7° З 1 - 20 км - переменная облачность 736 755 -0.6 76% +11.5° более 2.5 км - - - -
03:00 +14° Ю-З 1 - 10 км - переменная облачность 736 756 -0.7 82% +10.9° 1 км - - - -
00:00 +16.9° Ю,Ю-З 1 - 10 км - преимущественно облачно 737 756 -0.9 71% +11.6° 1 км - - - -
Среда, 22 Мая
Время местн. Темп Ветер Видим Явления Облачность нижн/средн/верх Атм. давл. Влжн Точка росы ВНГО R Сост. почвы Tg s
Напр Скр Прв ур.ст ур.м изм
21:00 +18.3° штиль 0 - 10 км - преимущественно облачно 738 757 -0.1 59% +10.1° 1 км 0 - - -
18:00 +22.6° Ю-З 2 - 20 км - преимущественно облачно 738 757 -0.9 42% +9° 600 м - - - -
15:00 +22.9° Ю-З 1 - 20 км - преимущественно облачно 739 758 -0.9 36% +7.2° 600 м - - - -
12:00 +23.3° З,Ю-З 2 - 20 км - переменная облачность 740 759 -1 27% +3.2° 1 км - - - -
09:00 +20.7° Ю-З 1 - 20 км - переменная облачность 741 760 -0.5 43% +7.7° более 2.5 км 0 Сухая (без трещин) +10° -
06:00 +15.2° Ю-З 1 - 20 км - облачно с прояснениями 741 761 -0.8 62% +8° более 2.5 км - - - -
03:00 +14.4° Ю-З 1 - 10 км - переменная облачность 742 762 -0.8 64% +7.7° более 2.5 км - - - -
00:00 +15.2° Ю,Ю-З 1 - 10 км - переменная облачность 743 762 -0.4 60% +7.5° более 2.5 км - - - -
Вторник, 21 Мая
Время местн. Темп Ветер Видим Явления Облачность нижн/средн/верх Атм. давл. Влжн Точка росы ВНГО R Сост. почвы Tg s
Напр Скр Прв ур.ст ур.м изм
21:00 +17.6° штиль 0 - 10 км - переменная облачность 743 763 -0.6 53% +7.9° 1 км 0 - - -
18:00 +22.1° Ю 1 - 20 км - преимущественно облачно 744 763 -1.4 38% +7° 1 км - - - -
15:00 +22.5° Ю 1 - 20 км - преимущественно облачно 745 764 -1 35% +6.2° 1 км - - - -
12:00 +21° В,Ю-В 2 - 20 км - преимущественно облачно 746 765 -0.4 34% +4.4° 600 м - - - -
09:00 +19.5° Ю-В 2 - 20 км - преимущественно облачно 747 766 +0.1 33% +2.8° - 0 Сухая (без трещин) - -
06:00 +11.5° Ю,Ю-В 2 - 20 км - преимущественно облачно 747 766 -0.3 66% +5.3° более 2.5 км - - - -